Time;durP1;ratioP1;P1;durP2;ratioP2;P2;SDS_P1;SDS_P2;PMS_P1;PMS_P2;Temp;Humidity;BMP_temperature;BMP_pressure;BME280_temperature;BME280_humidity;BME280_pressure;Samples;Min_cycle;Max_cycle;Signal;HPM_P1;HPM_P2
2023/03/14 00:00:40;;;;;;;5.68;1.60;;;;;;;8.81;100.00;98150.81;6086130;29;20046;-87
2023/03/14 00:03:45;;;;;;;2.08;1.30;;;;;;;8.84;100.00;98132.44;6088151;29;20141;-86
2023/03/14 00:06:50;;;;;;;4.82;2.00;;;;;;;8.89;100.00;98113.84;6090087;29;20634;-87
2023/03/14 00:09:51;;;;;;;4.32;1.90;;;;;;;8.94;100.00;98100.44;6088825;29;20041;-87
2023/03/14 00:12:53;;;;;;;3.45;2.00;;;;;;;9.02;100.00;98088.31;6092228;29;20055;-87
2023/03/14 00:16:02;;;;;;;2.30;1.63;;;;;;;8.98;100.00;98071.53;6090497;29;20122;-87
2023/03/14 00:19:04;;;;;;;5.07;1.35;;;;;;;8.93;100.00;98102.22;6090356;29;20047;-87
2023/03/14 00:22:06;;;;;;;3.65;1.50;;;;;;;8.93;100.00;98104.00;6087615;29;20056;-87
2023/03/14 00:25:10;;;;;;;3.90;1.67;;;;;;;8.88;100.00;98081.28;6091099;29;20106;-87
2023/03/14 00:28:12;;;;;;;4.50;1.40;;;;;;;8.79;100.00;98087.47;6088468;29;20514;-87
2023/03/14 00:31:15;;;;;;;4.47;1.23;;;;;;;8.78;100.00;98106.50;6089541;29;20518;-87
2023/03/14 00:34:17;;;;;;;2.90;1.10;;;;;;;8.67;100.00;98101.69;6089039;29;20055;-87
2023/03/14 00:37:19;;;;;;;3.75;1.70;;;;;;;8.57;100.00;98110.47;6083197;29;20051;-87
2023/03/14 00:40:21;;;;;;;4.68;1.55;;;;;;;8.52;100.00;98106.78;6089764;29;20047;-87
2023/03/14 00:43:23;;;;;;;2.92;1.20;;;;;;;8.45;100.00;98135.00;6088069;29;20520;-87
2023/03/14 00:46:25;;;;;;;3.88;1.40;;;;;;;8.48;100.00;98131.28;6087772;29;20122;-87
2023/03/14 00:49:28;;;;;;;3.97;1.30;;;;;;;8.52;100.00;98132.56;6087826;29;20046;-87
2023/03/14 00:52:29;;;;;;;3.90;1.40;;;;;;;8.62;100.00;98136.56;6069931;29;20079;-87
2023/03/14 00:55:31;;;;;;;3.15;1.40;;;;;;;8.66;100.00;98121.53;6086069;29;20091;-87
2023/03/14 00:58:34;;;;;;;3.88;1.23;;;;;;;8.69;100.00;98118.63;6079648;29;20499;-86
2023/03/14 01:01:36;;;;;;;2.63;1.10;;;;;;;8.80;100.00;98102.78;6076399;29;20059;-87
2023/03/14 01:04:39;;;;;;;3.03;1.30;;;;;;;8.74;100.00;98093.13;6082262;29;20131;-87
2023/03/14 01:07:41;;;;;;;2.28;1.23;;;;;;;8.60;100.00;98088.69;6087800;29;20131;-87
2023/03/14 01:10:43;;;;;;;1.63;1.35;;;;;;;8.44;100.00;98083.59;6088255;29;20534;-87
2023/03/14 01:13:45;;;;;;;2.60;1.40;;;;;;;8.34;100.00;98088.94;6085644;29;20240;-87
2023/03/14 01:16:47;;;;;;;3.22;1.45;;;;;;;8.34;100.00;98091.50;6094367;29;20053;-87
2023/03/14 01:19:49;;;;;;;2.28;1.02;;;;;;;8.41;100.00;98080.38;6094250;29;20044;-87
2023/03/14 01:22:51;;;;;;;2.15;1.50;;;;;;;8.46;100.00;98079.09;6090160;29;20509;-87
2023/03/14 01:25:53;;;;;;;2.72;1.30;;;;;;;8.60;100.00;98070.66;6092541;29;20721;-87
2023/03/14 01:28:56;;;;;;;3.40;1.17;;;;;;;8.72;100.00;98074.47;6091517;29;20533;-87
2023/03/14 01:31:58;;;;;;;4.43;1.25;;;;;;;8.88;100.00;98068.38;6091758;29;20065;-87
2023/03/14 01:35:01;;;;;;;2.47;0.90;;;;;;;8.94;100.00;98069.47;6091631;29;20051;-87
2023/03/14 01:38:02;;;;;;;1.85;1.30;;;;;;;8.99;100.00;98070.59;6092217;29;20048;-87
2023/03/14 01:41:06;;;;;;;2.70;1.17;;;;;;;8.97;100.00;98080.28;6104254;29;20072;-87
2023/03/14 01:44:14;;;;;;;3.58;1.30;;;;;;;8.94;100.00;98085.75;6082339;29;20048;-87
2023/03/14 01:47:15;;;;;;;2.85;1.15;;;;;;;9.01;100.00;98084.09;6092063;29;20052;-87
2023/03/14 01:50:17;;;;;;;6.20;1.50;;;;;;;9.16;100.00;98048.03;6092029;29;20085;-87
2023/03/14 01:53:21;;;;;;;3.53;1.58;;;;;;;9.25;100.00;98028.91;6093088;29;20048;-87
2023/03/14 01:56:24;;;;;;;4.35;1.38;;;;;;;9.27;100.00;98021.00;6090624;29;20159;-87
2023/03/14 01:59:29;;;;;;;6.88;1.50;;;;;;;9.33;100.00;98035.00;6090379;29;20495;-87
2023/03/14 02:02:32;;;;;;;6.57;1.35;;;;;;;9.40;100.00;98033.31;6064370;29;20044;-87
2023/03/14 02:05:37;;;;;;;3.80;1.02;;;;;;;9.43;100.00;98038.94;6090972;29;20052;-87
2023/03/14 02:08:48;;;;;;;;;;;;;;;9.51;100.00;98034.66;6081854;29;20087;-87
2023/03/14 02:11:54;;;;;;;3.45;1.30;;;;;;;9.55;100.00;98046.25;6096731;29;20369;-87
2023/03/14 02:15:35;;;;;;;2.13;0.95;;;;;;;9.63;100.00;98041.00;6064586;29;20768;-87
2023/03/14 02:18:44;;;;;;;3.00;1.05;;;;;;;9.73;100.00;98054.47;6068121;29;20056;-87
2023/03/14 02:22:14;;;;;;;3.40;1.20;;;;;;;9.73;100.00;98051.88;6060613;29;20104;-87
2023/03/14 02:25:39;;;;;;;2.42;1.48;;;;;;;9.70;100.00;98054.81;6047959;29;20084;-87
2023/03/14 02:28:41;;;;;;;2.05;0.90;;;;;;;9.64;100.00;98053.75;6065214;29;20052;-87
2023/03/14 02:31:43;;;;;;;2.03;1.20;;;;;;;9.63;100.00;98046.19;6045520;29;20041;-88
2023/03/14 02:34:49;;;;;;;3.75;1.10;;;;;;;9.54;100.00;98042.88;6048425;29;20060;-87
2023/03/14 02:37:57;;;;;;;2.22;1.13;;;;;;;9.52;100.00;98033.72;6060008;29;20593;-87
2023/03/14 02:41:03;;;;;;;2.60;1.08;;;;;;;9.47;100.00;98029.84;6065343;29;20096;-87
2023/03/14 02:44:09;;;;;;;2.03;1.10;;;;;;;9.42;100.00;98010.72;6030302;29;20543;-87
2023/03/14 02:47:11;;;;;;;1.45;0.90;;;;;;;9.29;100.00;98013.88;6060760;29;20055;-87
2023/03/14 02:50:20;;;;;;;3.10;1.33;;;;;;;9.24;100.00;98011.00;6062518;29;20053;-87
2023/03/14 02:53:26;;;;;;;4.47;1.17;;;;;;;9.12;100.00;97999.50;6045973;29;20056;-87
2023/03/14 02:56:30;;;;;;;3.83;1.20;;;;;;;9.00;100.00;97999.13;6049333;29;20052;-87
2023/03/14 02:59:34;;;;;;;3.83;1.75;;;;;;;8.98;100.00;97999.31;6077013;29;20044;-87
2023/03/14 03:02:43;;;;;;;3.00;1.02;;;;;;;8.99;100.00;98000.91;6080321;29;20052;-87
2023/03/14 03:05:50;;;;;;;2.97;1.25;;;;;;;9.03;100.00;97999.56;6088102;29;20041;-87
2023/03/14 03:08:52;;;;;;;3.50;1.05;;;;;;;9.14;100.00;97993.22;6073772;29;20521;-87
2023/03/14 03:11:54;;;;;;;5.20;1.40;;;;;;;9.02;100.00;97990.25;6091026;29;20047;-87
2023/03/14 03:14:58;;;;;;;4.88;1.10;;;;;;;8.88;100.00;97993.56;6082133;29;20613;-87
2023/03/14 03:18:00;;;;;;;5.22;1.25;;;;;;;8.82;100.00;97981.38;6060452;29;20048;-87
2023/03/14 03:21:03;;;;;;;5.25;1.48;;;;;;;8.91;100.00;97976.94;6091352;29;20048;-87
2023/03/14 03:24:06;;;;;;;3.97;1.48;;;;;;;9.09;100.00;97971.47;6091813;29;20497;-87
2023/03/14 03:27:08;;;;;;;2.67;1.08;;;;;;;9.08;100.00;97969.88;6098786;29;20190;-87
2023/03/14 03:30:11;;;;;;;3.38;1.10;;;;;;;9.13;100.00;97965.78;6089288;29;20481;-87
2023/03/14 03:33:13;;;;;;;2.33;1.10;;;;;;;9.24;100.00;97980.88;6081002;29;20426;-87
2023/03/14 03:36:25;;;;;;;2.15;1.17;;;;;;;9.25;100.00;97984.25;6086089;29;20044;-87
2023/03/14 03:39:27;;;;;;;2.75;1.00;;;;;;;9.19;100.00;97980.59;6091683;29;20124;-88
2023/03/14 03:42:30;;;;;;;2.95;0.93;;;;;;;9.02;100.00;97998.00;6085905;29;20056;-86
2023/03/14 03:45:32;;;;;;;3.45;1.13;;;;;;;8.86;100.00;98008.41;6088607;29;20542;-87
2023/03/14 03:48:36;;;;;;;5.93;1.30;;;;;;;8.84;100.00;98038.75;6087620;29;20467;-94
2023/03/14 03:51:40;;;;;;;3.70;1.15;;;;;;;8.67;100.00;98042.38;6076298;29;20044;-88
2023/03/14 03:54:42;;;;;;;4.47;0.90;;;;;;;8.40;100.00;98016.94;6091670;29;20056;-87
2023/03/14 03:57:44;;;;;;;2.42;0.70;;;;;;;8.16;100.00;98011.84;6090726;29;20048;-89
2023/03/14 04:00:47;;;;;;;2.30;0.52;;;;;;;7.94;100.00;98006.47;6099923;29;20513;-89
2023/03/14 04:03:49;;;;;;;2.53;0.52;;;;;;;7.73;100.00;98011.38;6065248;29;20048;-90
2023/03/14 04:06:52;;;;;;;2.40;0.70;;;;;;;7.58;100.00;98015.56;6091627;29;20035;-89
2023/03/14 04:09:54;;;;;;;3.08;0.60;;;;;;;7.46;100.00;98003.06;6086185;29;20388;-90
2023/03/14 04:13:07;;;;;;;1.73;0.55;;;;;;;7.27;100.00;97998.25;6075603;29;20060;-91
2023/03/14 04:16:21;;;;;;;3.33;0.80;;;;;;;7.22;100.00;98005.66;6089933;29;20040;-91
2023/03/14 04:19:26;;;;;;;0.90;0.60;;;;;;;7.14;100.00;98023.69;6091042;29;20048;-91
2023/03/14 04:22:29;;;;;;;5.03;0.65;;;;;;;6.99;100.00;98024.31;6086673;29;20055;-91
2023/03/14 04:25:32;;;;;;;1.48;0.65;;;;;;;6.99;100.00;98015.78;6086236;29;20455;-91
2023/03/14 04:28:39;;;;;;;2.70;0.75;;;;;;;7.00;100.00;98020.75;6064063;29;20499;-92
2023/03/14 04:31:42;;;;;;;2.05;0.60;;;;;;;6.93;100.00;98019.00;6071808;29;20044;-93
2023/03/14 04:34:47;;;;;;;1.17;0.50;;;;;;;6.92;100.00;98017.41;6080448;29;20639;-94
2023/03/14 04:37:51;;;;;;;1.25;0.50;;;;;;;6.80;100.00;98014.31;6090968;29;20048;-93
2023/03/14 04:40:58;;;;;;;1.20;0.50;;;;;;;6.68;100.00;98003.53;6091906;29;20388;-95
2023/03/14 04:44:06;;;;;;;1.98;0.60;;;;;;;6.66;100.00;98006.28;6081702;29;20044;-95
2023/03/14 04:47:10;;;;;;;1.05;0.47;;;;;;;6.77;100.00;98004.38;6088927;29;20236;-96
2023/03/14 04:50:13;;;;;;;2.40;0.50;;;;;;;6.76;100.00;97998.44;6084982;29;20514;-96
2023/03/14 04:53:17;;;;;;;0.30;0.30;;;;;;;6.59;100.00;97994.22;6080106;29;20083;-95
2023/03/14 04:56:20;;;;;;;2.53;1.05;;;;;;;6.58;100.00;97992.59;6092312;29;20054;-95
2023/03/14 04:59:24;;;;;;;2.00;0.60;;;;;;;6.60;100.00;97996.63;6103615;29;20056;-95
2023/03/14 05:02:34;;;;;;;0.50;0.40;;;;;;;6.58;100.00;97983.13;6095963;29;20075;-95
2023/03/14 05:05:55;;;;;;;3.50;0.50;;;;;;;6.51;100.00;97964.19;6089421;29;20419;-94
2023/03/14 05:09:15;;;;;;;3.10;0.60;;;;;;;6.54;100.00;97970.78;6095159;29;20559;-93
2023/03/14 05:12:39;;;;;;;1.08;0.40;;;;;;;6.41;100.00;97972.03;6082712;29;20071;-93
2023/03/14 05:16:07;;;;;;;1.85;0.55;;;;;;;6.39;100.00;97971.38;6091492;29;20514;-93
2023/03/14 05:19:22;;;;;;;2.08;0.90;;;;;;;6.41;100.00;97973.78;6092050;29;20044;-92
2023/03/14 05:22:56;;;;;;;2.72;0.90;;;;;;;6.59;100.00;97984.75;6055737;29;20104;-92
2023/03/14 05:26:16;;;;;;;2.67;0.60;;;;;;;6.54;100.00;97992.13;6069825;29;20048;-92
2023/03/14 05:29:28;;;;;;;3.40;0.90;;;;;;;6.45;100.00;97996.44;6066892;29;20040;-91
2023/03/14 05:32:49;;;;;;;4.00;1.23;;;;;;;6.41;100.00;97992.59;6059133;29;20574;-91
2023/03/14 05:35:51;;;;;;;5.00;0.88;;;;;;;6.34;100.00;97996.75;6059037;29;20484;-92
2023/03/14 05:39:15;;;;;;;3.53;0.85;;;;;;;6.29;100.00;97998.97;6071851;29;20525;-91
2023/03/14 05:42:17;;;;;;;3.55;0.80;;;;;;;6.30;100.00;97977.44;6092979;29;20509;-91
2023/03/14 05:45:34;;;;;;;2.17;0.77;;;;;;;6.41;100.00;97991.75;6097804;29;20056;-91
2023/03/14 05:48:36;;;;;;;7.18;1.40;;;;;;;6.46;100.00;97989.53;6097681;29;20059;-90
2023/03/14 05:51:56;;;;;;;1.73;0.80;;;;;;;6.60;100.00;98001.75;6095133;29;20317;-90
2023/03/14 05:55:18;;;;;;;2.97;1.48;;;;;;;6.61;100.00;97993.09;6067671;29;20485;-90
2023/03/14 05:58:46;;;;;;;6.25;1.25;;;;;;;6.57;100.00;97988.44;6023919;29;20109;-90
2023/03/14 06:01:58;;;;;;;3.20;0.90;;;;;;;6.50;100.00;97993.38;6020916;29;20095;-91
2023/03/14 06:05:03;;;;;;;3.30;0.90;;;;;;;6.69;100.00;97995.69;6013012;29;20061;-90
2023/03/14 06:08:05;;;;;;;5.95;1.20;;;;;;;6.73;100.00;97979.94;6006377;29;20056;-90
2023/03/14 06:11:07;;;;;;;2.15;1.02;;;;;;;6.73;100.00;97991.00;6010618;29;20049;-90
2023/03/14 06:14:09;;;;;;;2.13;0.80;;;;;;;6.86;100.00;97980.28;6021640;29;20148;-90
2023/03/14 06:17:14;;;;;;;3.78;0.98;;;;;;;6.99;100.00;97980.59;6022056;29;20427;-90
2023/03/14 06:20:26;;;;;;;3.92;1.25;;;;;;;7.21;100.00;97975.75;6022319;29;20072;-89
2023/03/14 06:23:30;;;;;;;2.20;0.90;;;;;;;7.35;100.00;97972.50;6025724;29;20185;-89
2023/03/14 06:26:33;;;;;;;3.47;1.38;;;;;;;7.46;100.00;97971.38;6024653;29;20607;-89
2023/03/14 06:29:35;;;;;;;4.55;1.10;;;;;;;7.59;100.00;97963.13;6021649;29;20128;-89
2023/03/14 06:32:37;;;;;;;2.65;0.70;;;;;;;7.76;100.00;97967.25;6022174;29;20516;-89
2023/03/14 06:35:44;;;;;;;4.70;0.70;;;;;;;7.94;100.00;97957.53;6053325;29;20052;-89
2023/03/14 06:38:46;;;;;;;1.73;0.70;;;;;;;8.13;100.00;97981.28;6095874;29;20085;-89
2023/03/14 06:41:48;;;;;;;1.73;0.90;;;;;;;8.29;100.00;97973.44;6095301;29;20059;-88
2023/03/14 06:44:52;;;;;;;2.97;0.82;;;;;;;8.29;100.00;97968.28;6085729;29;20055;-88
2023/03/14 06:47:54;;;;;;;2.83;0.60;;;;;;;8.41;100.00;97963.59;6094506;29;20052;-88
2023/03/14 06:51:01;;;;;;;2.67;0.98;;;;;;;8.45;100.00;97967.44;6088916;29;20059;-88
2023/03/14 06:54:03;;;;;;;0.55;0.30;;;;;;;8.58;100.00;97964.28;6092257;29;20135;-88
2023/03/14 06:57:06;;;;;;;0.63;0.40;;;;;;;8.64;100.00;97968.75;6067724;29;20053;-88
2023/03/14 07:00:12;;;;;;;2.30;0.50;;;;;;;8.80;100.00;97973.00;6092150;29;20048;-88
2023/03/14 07:03:15;;;;;;;1.85;0.50;;;;;;;8.87;100.00;97966.19;6092570;29;20079;-87
2023/03/14 07:06:22;;;;;;;0.75;0.40;;;;;;;8.80;100.00;97966.06;6090167;29;20392;-88
2023/03/14 07:09:25;;;;;;;1.20;0.52;;;;;;;8.68;100.00;97971.81;6090250;29;20055;-88
2023/03/14 07:12:32;;;;;;;1.08;0.38;;;;;;;8.62;100.00;97974.09;6092041;29;20068;-88
2023/03/14 07:15:34;;;;;;;2.22;0.60;;;;;;;8.63;100.00;97972.31;6092236;29;20059;-88
2023/03/14 07:18:41;;;;;;;1.95;0.30;;;;;;;8.76;100.00;97974.31;6092207;29;20071;-88
2023/03/14 07:21:44;;;;;;;1.55;0.60;;;;;;;8.90;100.00;97970.19;6083965;29;20090;-88
2023/03/14 07:24:48;;;;;;;0.85;0.30;;;;;;;9.06;100.00;97972.63;6084598;29;20129;-88
2023/03/14 07:27:49;;;;;;;1.55;0.38;;;;;;;9.23;100.00;97979.25;6085074;29;20289;-88
2023/03/14 07:30:52;;;;;;;0.60;0.20;;;;;;;9.32;100.00;97974.81;6092176;29;20094;-88
2023/03/14 07:34:05;;;;;;;2.88;0.88;;;;;;;9.33;100.00;97978.19;6079509;29;20059;-88
2023/03/14 07:37:11;;;;;;;1.92;0.30;;;;;;;9.18;100.00;97988.50;6090855;29;20521;-88
2023/03/14 07:40:19;;;;;;;0.77;0.35;;;;;;;9.11;100.00;97990.16;6090936;29;20048;-88
2023/03/14 07:43:21;;;;;;;0.20;0.20;;;;;;;9.07;100.00;97994.88;6091160;29;20062;-88
2023/03/14 07:46:23;;;;;;;0.50;0.30;;;;;;;8.98;100.00;97998.50;6091464;29;20126;-88
2023/03/14 07:49:25;;;;;;;0.45;0.20;;;;;;;8.90;100.00;97996.00;6092326;29;20079;-87
2023/03/14 07:52:27;;;;;;;1.13;0.30;;;;;;;8.90;100.00;98003.72;6089243;29;20460;-87
2023/03/14 07:55:29;;;;;;;0.73;0.38;;;;;;;8.92;100.00;97999.19;6091709;29;20581;-89
2023/03/14 07:58:31;;;;;;;0.20;0.20;;;;;;;8.97;100.00;97999.50;6092108;29;20052;-89
2023/03/14 08:01:33;;;;;;;0.73;0.40;;;;;;;8.94;100.00;98000.63;6084574;29;20490;-89
2023/03/14 08:04:34;;;;;;;0.25;0.25;;;;;;;8.94;100.00;98004.97;6091572;29;20134;-89
2023/03/14 08:07:36;;;;;;;1.17;0.28;;;;;;;8.96;100.00;97985.75;6092775;29;20471;-90
2023/03/14 08:10:38;;;;;;;1.67;0.40;;;;;;;9.15;100.00;97994.81;6092877;29;20052;-89
2023/03/14 08:13:40;;;;;;;0.47;0.30;;;;;;;9.35;100.00;97989.16;6097332;29;20091;-89
2023/03/14 08:16:42;;;;;;;0.20;0.20;;;;;;;9.43;100.00;97999.41;6091801;29;20092;-89
2023/03/14 08:19:44;;;;;;;0.32;0.20;;;;;;;9.55;100.00;98005.75;6091053;29;20074;-90
2023/03/14 08:22:46;;;;;;;0.82;0.30;;;;;;;9.62;100.00;97991.13;6090845;29;20052;-89
2023/03/14 08:25:54;;;;;;;0.30;0.30;;;;;;;9.62;100.00;97995.50;6092499;29;20071;-89
2023/03/14 08:28:55;;;;;;;0.10;0.10;;;;;;;9.42;100.00;97990.84;6092754;29;20491;-89
2023/03/14 08:31:57;;;;;;;0.45;0.25;;;;;;;9.31;100.00;97987.91;6090611;29;20151;-90
2023/03/14 08:34:59;;;;;;;0.68;0.30;;;;;;;9.27;100.00;97980.50;6097912;29;20072;-89
2023/03/14 08:38:01;;;;;;;0.20;0.20;;;;;;;9.34;100.00;97983.19;6088559;29;20059;-89
2023/03/14 08:41:03;;;;;;;0.85;0.30;;;;;;;9.61;100.00;97988.72;6092430;29;20514;-89
2023/03/14 08:44:09;;;;;;;0.30;0.30;;;;;;;9.83;100.00;97977.50;6092831;29;20179;-89
2023/03/14 08:47:11;;;;;;;0.75;0.30;;;;;;;10.12;100.00;97974.09;6089832;29;20451;-89
2023/03/14 08:50:13;;;;;;;1.10;0.40;;;;;;;10.35;100.00;97981.72;6092535;29;20123;-89
2023/03/14 08:53:17;;;;;;;0.85;0.50;;;;;;;10.37;100.00;97965.25;6087148;29;20392;-88
2023/03/14 08:56:19;;;;;;;1.95;0.40;;;;;;;10.23;100.00;97982.34;6093049;29;20530;-88
2023/03/14 08:59:21;;;;;;;0.70;0.40;;;;;;;10.20;100.00;97978.34;6090705;29;20044;-88
2023/03/14 09:02:25;;;;;;;0.50;0.40;;;;;;;10.19;100.00;97986.31;6089946;29;20152;-88
2023/03/14 09:05:27;;;;;;;0.57;0.57;;;;;;;10.34;100.00;97990.47;6091365;29;20068;-88
2023/03/14 09:08:29;;;;;;;2.22;0.57;;;;;;;10.47;100.00;97976.88;6091507;29;20564;-88
2023/03/14 09:11:31;;;;;;;0.52;0.40;;;;;;;10.39;100.00;97992.53;6089108;29;20511;-88
2023/03/14 09:14:33;;;;;;;0.85;0.40;;;;;;;10.26;100.00;97985.38;6091602;29;20048;-88
2023/03/14 09:17:35;;;;;;;1.92;0.52;;;;;;;10.23;100.00;97983.16;6088229;29;20418;-88
2023/03/14 09:20:36;;;;;;;0.50;0.50;;;;;;;10.13;100.00;97988.59;6092027;29;20046;-88
2023/03/14 09:23:39;;;;;;;0.70;0.57;;;;;;;10.19;100.00;97991.47;6088811;29;20044;-88
2023/03/14 09:26:41;;;;;;;1.35;0.60;;;;;;;10.43;100.00;97988.56;6087157;29;20059;-88
2023/03/14 09:29:46;;;;;;;0.73;0.73;;;;;;;10.52;100.00;97989.25;6091669;29;20059;-88
2023/03/14 09:32:47;;;;;;;1.10;0.75;;;;;;;10.43;100.00;98004.06;6091365;29;20040;-87
2023/03/14 09:35:51;;;;;;;0.60;0.50;;;;;;;10.50;100.00;97994.59;6090161;29;20180;-87
2023/03/14 09:38:52;;;;;;;1.08;0.70;;;;;;;10.61;100.00;97985.59;6093065;29;20048;-87
2023/03/14 09:41:58;;;;;;;2.10;0.57;;;;;;;10.76;100.00;97991.50;6091358;29;20036;-87
2023/03/14 09:45:05;;;;;;;1.23;0.70;;;;;;;10.90;100.00;97995.00;6080391;29;20550;-88
2023/03/14 09:48:20;;;;;;;2.58;0.55;;;;;;;11.03;100.00;97996.09;6093767;29;20045;-88
2023/03/14 09:51:26;;;;;;;1.13;0.50;;;;;;;10.93;100.00;97989.47;6102036;29;20721;-88
2023/03/14 09:54:46;;;;;;;0.55;0.55;;;;;;;10.85;100.00;97988.78;6085925;29;20215;-87
2023/03/14 09:57:54;;;;;;;0.50;0.50;;;;;;;11.08;100.00;97993.75;6088547;29;20040;-88
2023/03/14 10:00:58;;;;;;;1.08;0.65;;;;;;;11.30;100.00;97992.72;6093224;29;20614;-87
2023/03/14 10:04:09;;;;;;;1.67;0.70;;;;;;;11.51;100.00;97996.28;6093375;29;20063;-88
2023/03/14 10:07:28;;;;;;;0.77;0.73;;;;;;;11.66;100.00;97996.97;6088728;29;20044;-87
2023/03/14 10:10:31;;;;;;;0.98;0.60;;;;;;;11.75;100.00;97992.41;6090839;29;20586;-87
2023/03/14 10:13:33;;;;;;;1.48;0.60;;;;;;;11.79;100.00;97988.44;6097596;29;20037;-87
2023/03/14 10:16:40;;;;;;;0.63;0.60;;;;;;;11.82;100.00;97986.25;6092232;29;20044;-87
2023/03/14 10:19:58;;;;;;;1.80;0.55;;;;;;;11.76;100.00;97984.44;6091738;29;20331;-87
2023/03/14 10:23:03;;;;;;;0.50;0.50;;;;;;;11.70;100.00;97987.81;6093936;29;20104;-87
2023/03/14 10:26:13;;;;;;;0.50;0.50;;;;;;;11.34;100.00;97983.59;6090308;29;20043;-87
2023/03/14 10:29:16;;;;;;;0.57;0.57;;;;;;;11.04;100.00;97993.34;6091658;29;20048;-87
2023/03/14 10:32:22;;;;;;;1.63;0.60;;;;;;;10.93;100.00;97988.63;6092773;29;21204;-87
2023/03/14 10:35:24;;;;;;;1.27;0.60;;;;;;;10.86;100.00;97993.78;6086967;29;20048;-87
2023/03/14 10:38:29;;;;;;;0.50;0.50;;;;;;;10.81;100.00;97992.72;6093777;29;20044;-87
2023/03/14 10:41:33;;;;;;;0.55;0.55;;;;;;;10.78;100.00;97994.72;6093091;29;20048;-86
2023/03/14 10:44:36;;;;;;;1.13;0.80;;;;;;;10.77;100.00;97990.50;6076825;29;20059;-87
2023/03/14 10:47:49;;;;;;;1.90;0.93;;;;;;;10.86;100.00;97987.81;6092937;29;20130;-86
2023/03/14 10:51:06;;;;;;;1.20;1.10;;;;;;;10.96;100.00;97991.69;6093110;29;20044;-86
2023/03/14 10:54:21;;;;;;;1.80;0.98;;;;;;;11.15;100.00;97989.44;6094100;29;20047;-87
2023/03/14 10:57:23;;;;;;;1.08;0.95;;;;;;;11.23;100.00;97985.91;6092464;29;20139;-87
2023/03/14 11:00:25;;;;;;;1.30;1.20;;;;;;;11.30;100.00;97973.81;6093223;29;20078;-87
2023/03/14 11:03:34;;;;;;;1.00;0.90;;;;;;;11.39;100.00;97983.81;6089019;29;20529;-87
2023/03/14 11:06:45;;;;;;;1.40;1.30;;;;;;;11.47;100.00;97980.28;6089144;29;20044;-88
2023/03/14 11:10:09;;;;;;;;;;;;;;;11.40;100.00;97979.44;6091678;29;20036;-88
2023/03/14 11:13:35;;;;;;;1.58;1.20;;;;;;;11.25;100.00;97987.31;6092013;29;19927;-87
2023/03/14 11:17:00;;;;;;;0.90;0.80;;;;;;;11.08;100.00;97994.56;6091713;29;20131;-87
2023/03/14 11:20:10;;;;;;;0.98;0.70;;;;;;;10.90;100.00;98014.91;6091281;29;20487;-87
2023/03/14 11:23:20;;;;;;;1.50;0.93;;;;;;;10.20;100.00;98107.59;6096501;29;20055;-87
2023/03/14 11:26:51;;;;;;;2.30;0.50;;;;;;;7.83;100.00;98145.09;6082567;29;20184;-86
2023/03/14 11:30:14;;;;;;;0.65;0.45;;;;;;;6.72;100.00;98158.28;6079702;29;20131;-86
2023/03/14 11:33:50;;;;;;;1.40;0.50;;;;;;;6.39;100.00;98173.56;6092599;29;20058;-86
2023/03/14 11:36:59;;;;;;;0.85;0.30;;;;;;;6.34;100.00;98174.00;6088523;29;20048;-87
2023/03/14 11:40:18;;;;;;;1.95;0.40;;;;;;;6.28;100.00;98199.50;6089023;29;20044;-86
2023/03/14 11:43:30;;;;;;;1.20;0.47;;;;;;;6.22;100.00;98218.91;6091539;29;20056;-85
2023/03/14 11:46:45;;;;;;;0.43;0.38;;;;;;;6.22;100.00;98231.75;6089755;29;20571;-86
2023/03/14 11:50:25;;;;;;;0.52;0.47;;;;;;;6.00;100.00;98241.53;6088199;29;20406;-86
2023/03/14 11:53:55;;;;;;;0.80;0.70;;;;;;;5.73;100.00;98272.38;6051580;29;20476;-86
2023/03/14 11:57:04;;;;;;;1.77;1.00;;;;;;;5.52;100.00;98290.63;6025477;29;20505;-87
2023/03/14 12:00:24;;;;;;;1.88;1.25;;;;;;;5.29;100.00;98324.38;6058967;29;20053;-87
2023/03/14 12:03:44;;;;;;;1.10;1.00;;;;;;;5.11;100.00;98334.53;6055197;29;20061;-86
2023/03/14 12:06:52;;;;;;;0.60;0.52;;;;;;;4.95;100.00;98358.22;6046833;29;20053;-88
2023/03/14 12:09:55;;;;;;;0.50;0.50;;;;;;;4.85;100.00;98418.16;6051334;29;20527;-88
2023/03/14 12:12:58;;;;;;;0.45;0.40;;;;;;;4.66;100.00;98391.59;6056484;29;20147;-86
2023/03/14 12:16:05;;;;;;;1.08;0.40;;;;;;;4.53;100.00;98399.53;6045477;29;20594;-88
2023/03/14 12:19:21;;;;;;;0.40;0.40;;;;;;;4.55;100.00;98417.34;6056368;29;20632;-87
2023/03/14 12:22:27;;;;;;;0.68;0.32;;;;;;;4.32;100.00;98473.13;6046955;29;20047;-89
2023/03/14 12:25:33;;;;;;;0.30;0.30;;;;;;;4.12;100.00;98456.91;6083722;29;20053;-88
2023/03/14 12:28:35;;;;;;;0.85;0.52;;;;;;;3.95;100.00;98481.41;6089145;29;20082;-87
2023/03/14 12:32:06;;;;;;;0.22;0.22;;;;;;;3.77;100.00;98488.88;6095647;29;20392;-88
2023/03/14 12:35:41;;;;;;;0.20;0.20;;;;;;;3.58;100.00;98504.16;6083513;29;20557;-88
2023/03/14 12:39:04;;;;;;;0.73;0.50;;;;;;;3.51;100.00;98521.75;6089274;29;20447;-87
2023/03/14 12:42:12;;;;;;;0.40;0.40;;;;;;;3.51;100.00;98519.19;6075729;29;20040;-87
2023/03/14 12:45:34;;;;;;;1.35;0.40;;;;;;;3.59;100.00;98529.59;6085339;29;20418;-88
2023/03/14 12:48:40;;;;;;;0.43;0.38;;;;;;;3.60;100.00;98521.00;6067086;29;20517;-86
2023/03/14 12:51:45;;;;;;;1.10;0.30;;;;;;;3.53;100.00;98535.22;6080839;29;20092;-86
2023/03/14 12:55:09;;;;;;;1.55;0.55;;;;;;;3.52;100.00;98556.59;6088743;29;20040;-91
2023/03/14 12:58:31;;;;;;;1.27;0.47;;;;;;;3.51;100.00;98549.06;6102565;29;20052;-86
2023/03/14 13:01:33;;;;;;;1.17;1.08;;;;;;;3.75;100.00;98574.38;6089296;29;20107;-87
2023/03/14 13:04:48;;;;;;;1.75;0.50;;;;;;;3.88;100.00;98603.97;6089880;29;20044;-86
2023/03/14 13:07:50;;;;;;;1.20;0.60;;;;;;;3.89;100.00;98617.56;6081854;29;20052;-88
2023/03/14 13:10:52;;;;;;;4.38;0.85;;;;;;;4.10;100.00;98623.47;6091682;29;20466;-90
2023/03/14 13:14:00;;;;;;;4.30;1.23;;;;;;;4.39;100.00;98633.03;6094046;29;20051;-92
2023/03/14 13:17:02;;;;;;;4.63;1.00;;;;;;;4.48;100.00;98632.25;6093763;29;20043;-90
2023/03/14 13:20:30;;;;;;;3.20;0.98;;;;;;;4.62;100.00;98627.72;6093945;29;20710;-90
2023/03/14 13:23:35;;;;;;;3.80;0.88;;;;;;;4.80;100.00;98636.41;6092138;29;20344;-88
2023/03/14 13:26:38;;;;;;;5.10;1.30;;;;;;;5.12;100.00;98650.78;6091084;29;20036;-88
2023/03/14 13:29:41;;;;;;;6.50;0.85;;;;;;;5.09;100.00;98654.44;6094583;29;20040;-88
2023/03/14 13:32:47;;;;;;;5.20;0.95;;;;;;;5.05;100.00;98662.50;6096516;29;20048;-88
2023/03/14 13:35:57;;;;;;;6.15;1.77;;;;;;;4.92;100.00;98671.25;6086395;29;20051;-87
2023/03/14 13:39:01;;;;;;;8.40;1.10;;;;;;;4.79;100.00;98675.78;6093327;29;20044;-88
2023/03/14 13:42:03;;;;;;;5.38;1.33;;;;;;;4.65;100.00;98707.72;6093905;29;20134;-88
2023/03/14 13:45:05;;;;;;;5.38;1.40;;;;;;;4.62;100.00;98713.09;6094987;29;20040;-92
2023/03/14 13:48:12;;;;;;;4.60;1.20;;;;;;;4.74;100.00;98713.81;6092505;29;20067;-91
2023/03/14 13:51:17;;;;;;;4.93;1.38;;;;;;;5.02;100.00;98732.81;6091712;29;20040;-90
2023/03/14 13:54:21;;;;;;;10.02;1.65;;;;;;;4.87;100.00;98727.25;6093011;29;20040;-89
2023/03/14 13:57:23;;;;;;;3.63;1.35;;;;;;;4.84;100.00;98737.72;6093804;29;20113;-89
2023/03/14 14:00:27;;;;;;;3.75;1.42;;;;;;;4.89;100.00;98739.91;6089267;29;20060;-89
2023/03/14 14:03:40;;;;;;;8.23;2.13;;;;;;;4.81;100.00;98740.56;6088565;29;20047;-88
2023/03/14 14:06:57;;;;;;;3.10;1.40;;;;;;;4.65;100.00;98741.03;6091144;29;20071;-88
2023/03/14 14:10:06;;;;;;;8.20;2.22;;;;;;;4.56;100.00;98756.34;6095710;29;20044;-88
2023/03/14 14:13:15;;;;;;;9.20;1.73;;;;;;;4.49;100.00;98768.84;6092627;29;20430;-87
2023/03/14 14:16:24;;;;;;;7.43;2.05;;;;;;;4.51;100.00;98790.03;6088129;29;20056;-87
2023/03/14 14:19:30;;;;;;;8.82;1.70;;;;;;;4.47;100.00;98809.97;6091453;29;20044;-87
2023/03/14 14:22:35;;;;;;;8.82;2.05;;;;;;;4.59;100.00;98815.03;6088415;29;20048;-87
2023/03/14 14:25:57;;;;;;;11.07;1.95;;;;;;;4.54;100.00;98823.09;6091688;29;20116;-86
2023/03/14 14:29:23;;;;;;;20.75;5.18;;;;;;;4.67;100.00;98828.84;6090612;29;20242;-86
2023/03/14 14:32:44;;;;;;;13.00;2.75;;;;;;;4.73;100.00;98845.47;6090409;29;20048;-86
2023/03/14 14:36:02;;;;;;;16.65;3.42;;;;;;;4.69;100.00;98867.16;6092096;29;20060;-86
2023/03/14 14:39:28;;;;;;;12.15;4.65;;;;;;;4.49;100.00;98886.69;6091608;29;20549;-86